createdAt,value
2019-01-26T00:00:21.350Z,87.74
2019-01-26T00:01:21.588Z,88.02
2019-01-26T00:02:21.582Z,88.12
2019-01-26T00:03:21.560Z,87.55
2019-01-26T00:04:21.307Z,87.27
2019-01-26T00:05:21.304Z,86.98
2019-01-26T00:06:21.529Z,87.08
2019-01-26T00:07:21.522Z,87.08
2019-01-26T00:08:21.503Z,86.32
2019-01-26T00:09:21.242Z,86.22
2019-01-26T00:10:21.234Z,86.13
2019-01-26T00:11:21.494Z,86.51
2019-01-26T00:12:21.456Z,87.27
2019-01-26T00:13:21.444Z,86.89
2019-01-26T00:14:21.436Z,86.41
2019-01-26T00:15:21.426Z,85.85
2019-01-26T00:16:23.385Z,85.75
2019-01-26T00:17:21.149Z,86.51
2019-01-26T00:18:21.397Z,86.6
2019-01-26T00:19:21.157Z,86.6
2019-01-26T00:20:21.367Z,87.17
2019-01-26T00:21:21.121Z,87.08
2019-01-26T00:22:21.349Z,87.17
2019-01-26T00:23:21.335Z,86.98
2019-01-26T00:24:21.329Z,86.98
2019-01-26T00:25:21.310Z,87.36
2019-01-26T00:26:21.300Z,86.79
2019-01-26T00:27:21.048Z,86.6
2019-01-26T00:28:21.283Z,86.41
2019-01-26T00:29:21.020Z,86.41
2019-01-26T00:30:21.267Z,86.79
2019-01-26T00:31:21.244Z,86.41
2019-01-26T00:32:21.232Z,86.98
2019-01-26T00:33:20.985Z,87.55
2019-01-26T00:34:21.204Z,87.65
2019-01-26T00:35:21.197Z,86.79
2019-01-26T00:36:21.184Z,86.7
2019-01-26T00:37:20.926Z,85.75
2019-01-26T00:38:20.908Z,85.75
2019-01-26T00:39:20.903Z,86.04
2019-01-26T00:40:20.946Z,85.75
2019-01-26T00:41:21.125Z,86.41
2019-01-26T00:42:21.114Z,86.04
2019-01-26T00:43:21.099Z,85.57
2019-01-26T00:44:21.120Z,85.66
2019-01-26T00:45:20.837Z,85.57
2019-01-26T00:46:21.068Z,85
2019-01-26T00:47:20.815Z,85.57
2019-01-26T00:48:20.793Z,85.47
2019-01-26T00:49:21.035Z,85.38
2019-01-26T00:50:20.785Z,85.38
2019-01-26T00:51:21.009Z,85.28
2019-01-26T00:52:21.002Z,85.38
2019-01-26T00:53:20.986Z,85.57
2019-01-26T00:54:20.978Z,85.57
2019-01-26T00:55:20.729Z,85.85
2019-01-26T00:56:20.953Z,86.13
2019-01-26T00:57:20.938Z,85.94
2019-01-26T00:58:23.618Z,86.7
2019-01-26T00:59:20.915Z,87.08
2019-01-26T01:00:20.682Z,87.55
2019-01-26T01:01:20.660Z,87.27
2019-01-26T01:02:20.884Z,87.08
2019-01-26T01:03:20.887Z,87.55
2019-01-26T01:04:20.618Z,88.02
2019-01-26T01:05:20.615Z,87.74
2019-01-26T01:06:20.844Z,88.12
2019-01-26T01:07:20.834Z,89.54
2019-01-26T01:08:20.567Z,89.35
2019-01-26T01:09:20.561Z,90.39
2019-01-26T01:10:20.558Z,91.05
2019-01-26T01:11:20.792Z,91.91
2019-01-26T01:12:20.775Z,92.66
2019-01-26T01:13:20.771Z,92.76
2019-01-26T01:14:20.749Z,93.61
2019-01-26T01:15:20.508Z,93.7
2019-01-26T01:16:20.509Z,93.7
2019-01-26T01:17:20.727Z,94.56
2019-01-26T01:18:20.468Z,94.93
2019-01-26T01:19:23.152Z,94.93
2019-01-26T01:20:20.677Z,95.69
2019-01-26T01:21:20.443Z,96.07
2019-01-26T01:22:20.666Z,96.35
2019-01-26T01:23:20.404Z,96.92
2019-01-26T01:24:20.635Z,97.02
2019-01-26T01:25:20.618Z,97.39
2019-01-26T01:26:20.357Z,97.49
2019-01-26T01:27:20.597Z,98.39
2019-01-26T01:28:20.578Z,98.86
2019-01-26T01:29:20.580Z,99.52
2019-01-26T01:30:20.305Z,99.62
2019-01-26T01:31:20.542Z,99.9
2019-01-26T01:32:20.291Z,99.99
2019-01-26T01:33:20.525Z,99.99
2019-01-26T01:34:20.267Z,99.99
2019-01-26T01:35:20.509Z,99.99
2019-01-26T01:36:20.253Z,99.99
2019-01-26T01:37:20.472Z,99.99
2019-01-26T01:38:20.505Z,99.99
2019-01-26T01:39:20.519Z,99.99
2019-01-26T01:40:20.438Z,99.99
2019-01-26T01:41:20.424Z,99.99
2019-01-26T01:42:20.409Z,99.99
2019-01-26T01:43:20.144Z,99.99
2019-01-26T01:44:20.197Z,99.99
2019-01-26T01:45:20.376Z,99.99
2019-01-26T01:46:20.365Z,99.99
2019-01-26T01:47:20.101Z,99.99
2019-01-26T01:48:20.332Z,99.99
2019-01-26T01:49:20.353Z,99.99
2019-01-26T01:50:20.073Z,99.99
2019-01-26T01:51:20.297Z,99.99
2019-01-26T01:52:20.287Z,99.99
2019-01-26T01:53:20.274Z,99.99
2019-01-26T01:54:20.266Z,99.99
2019-01-26T01:55:20.248Z,99.99
2019-01-26T01:56:19.998Z,99.99
2019-01-26T01:57:20.228Z,99.99
2019-01-26T01:58:20.214Z,99.99
2019-01-26T01:59:20.220Z,99.99
2019-01-26T02:00:19.984Z,99.99
2019-01-26T02:01:20.176Z,99.99
2019-01-26T02:02:20.164Z,99.99
2019-01-26T02:03:20.164Z,99.99
2019-01-26T02:04:20.149Z,99.99
2019-01-26T02:05:19.881Z,99.99
2019-01-26T02:06:20.125Z,99.99
2019-01-26T02:07:20.111Z,99.99
2019-01-26T02:08:19.861Z,99.99
2019-01-26T02:09:19.841Z,99.99
2019-01-26T02:10:19.824Z,99.99
2019-01-26T02:11:20.056Z,99.99
2019-01-26T02:12:20.048Z,99.99
2019-01-26T02:13:20.046Z,99.99
2019-01-26T02:14:20.026Z,99.99
2019-01-26T02:15:20.013Z,99.99
2019-01-26T02:16:19.756Z,99.99
2019-01-26T02:17:19.987Z,99.99
2019-01-26T02:18:19.975Z,99.99
2019-01-26T02:19:19.983Z,99.99
2019-01-26T02:20:19.962Z,99.99
2019-01-26T02:21:19.936Z,99.99
2019-01-26T02:22:19.686Z,99.99
2019-01-26T02:23:19.664Z,99.99
2019-01-26T02:24:19.652Z,99.99
2019-01-26T02:25:19.910Z,99.99
2019-01-26T02:26:19.882Z,99.99
2019-01-26T02:27:19.617Z,99.99
2019-01-26T02:28:19.860Z,99.99
2019-01-26T02:29:19.607Z,99.99
2019-01-26T02:30:19.835Z,99.99
2019-01-26T02:31:19.822Z,99.99
2019-01-26T02:32:19.827Z,99.99
2019-01-26T02:33:19.794Z,99.99
2019-01-26T02:34:19.794Z,99.99
2019-01-26T02:35:19.788Z,99.99
2019-01-26T02:36:19.760Z,99.99
2019-01-26T02:37:19.767Z,99.99
2019-01-26T02:38:19.731Z,99.99
2019-01-26T02:39:19.748Z,99.99
2019-01-26T02:40:19.768Z,99.99
2019-01-26T02:41:19.703Z,99.99
2019-01-26T02:42:19.682Z,99.99
2019-01-26T02:43:19.430Z,99.99
2019-01-26T02:44:19.659Z,99.99
2019-01-26T02:45:19.653Z,99.99
2019-01-26T02:46:19.397Z,99.99
2019-01-26T02:47:19.623Z,99.99
2019-01-26T02:48:19.371Z,99.99
2019-01-26T02:49:19.347Z,99.99
2019-01-26T02:50:19.592Z,99.99
2019-01-26T02:51:19.588Z,99.99
2019-01-26T02:52:19.313Z,99.99
2019-01-26T02:53:19.577Z,99.99
2019-01-26T02:54:19.541Z,99.99
2019-01-26T02:55:19.540Z,99.99
2019-01-26T02:56:19.266Z,99.99
2019-01-26T02:57:19.513Z,99.99
2019-01-26T02:58:19.502Z,99.99
2019-01-26T02:59:19.486Z,99.99
2019-01-26T03:00:19.518Z,99.99
2019-01-26T03:01:19.457Z,99.99
2019-01-26T03:02:19.441Z,99.99
2019-01-26T03:03:19.430Z,99.99
2019-01-26T03:04:19.430Z,99.99
2019-01-26T03:05:19.424Z,99.99
2019-01-26T03:06:19.164Z,99.99
2019-01-26T03:07:19.140Z,99.99
2019-01-26T03:08:19.122Z,99.99
2019-01-26T03:09:19.121Z,99.99
2019-01-26T03:10:19.352Z,99.99
2019-01-26T03:11:19.335Z,99.99
2019-01-26T03:12:19.082Z,99.99
2019-01-26T03:13:19.310Z,99.99
2019-01-26T03:14:19.320Z,99.99
2019-01-26T03:15:19.336Z,99.99
2019-01-26T03:16:19.287Z,99.99
2019-01-26T03:17:19.275Z,99.99
2019-01-26T03:18:19.251Z,99.99
2019-01-26T03:19:19.244Z,99.99
2019-01-26T03:20:19.230Z,99.99
2019-01-26T03:21:19.224Z,99.99
2019-01-26T03:22:19.206Z,99.99
2019-01-26T03:23:19.193Z,99.99
2019-01-26T03:24:19.192Z,99.99
2019-01-26T03:25:19.173Z,99.99
2019-01-26T03:26:19.169Z,99.99
2019-01-26T03:27:19.170Z,99.99
2019-01-26T03:28:19.164Z,99.99
2019-01-26T03:29:18.888Z,99.99
2019-01-26T03:30:18.979Z,99.99
2019-01-26T03:31:19.109Z,99.99
2019-01-26T03:32:19.107Z,99.99
2019-01-26T03:33:18.882Z,99.99
2019-01-26T03:34:19.067Z,99.99
2019-01-26T03:35:18.915Z,99.99
2019-01-26T03:36:19.049Z,99.99
2019-01-26T03:37:18.780Z,99.99
2019-01-26T03:38:19.024Z,99.99
2019-01-26T03:39:18.759Z,99.99
2019-01-26T03:40:19.131Z,99.99
2019-01-26T03:41:18.987Z,99.99
2019-01-26T03:42:18.734Z,99.99
2019-01-26T03:43:18.961Z,99.99
2019-01-26T03:44:18.953Z,99.99
2019-01-26T03:45:18.965Z,99.99
2019-01-26T03:46:18.934Z,99.99
2019-01-26T03:47:18.929Z,99.99
2019-01-26T03:48:18.661Z,99.99
2019-01-26T03:49:18.897Z,99.99
2019-01-26T03:50:18.635Z,99.99
2019-01-26T03:51:18.881Z,99.99
2019-01-26T03:52:18.903Z,99.99
2019-01-26T03:53:18.606Z,99.99
2019-01-26T03:54:18.589Z,99.99
2019-01-26T03:55:18.602Z,99.99
2019-01-26T03:56:18.820Z,99.99
2019-01-26T03:57:20.201Z,99.99
2019-01-26T03:58:18.549Z,99.99
2019-01-26T03:59:18.788Z,99.99
2019-01-26T04:00:18.627Z,99.99
2019-01-26T04:01:18.821Z,99.99
2019-01-26T04:02:18.525Z,99.99
2019-01-26T04:03:18.754Z,99.99
2019-01-26T04:04:18.723Z,99.99
2019-01-26T04:05:18.827Z,99.99
2019-01-26T04:06:18.468Z,99.99
2019-01-26T04:07:18.691Z,99.99
2019-01-26T04:08:18.681Z,99.99
2019-01-26T04:09:18.426Z,99.99
2019-01-26T04:10:18.782Z,99.99
2019-01-26T04:11:18.650Z,99.99
2019-01-26T04:12:18.653Z,99.99
2019-01-26T04:13:18.375Z,99.99
2019-01-26T04:14:18.925Z,99.99
2019-01-26T04:15:18.691Z,99.99
2019-01-26T04:16:18.595Z,99.99
2019-01-26T04:17:24.270Z,99.99
2019-01-26T04:18:18.576Z,99.99
2019-01-26T04:19:18.554Z,99.99
2019-01-26T04:20:18.572Z,99.99
2019-01-26T04:21:18.288Z,99.99
2019-01-26T04:22:18.533Z,99.99
2019-01-26T04:23:18.515Z,99.99
2019-01-26T04:24:18.513Z,99.99
2019-01-26T04:25:18.617Z,99.99
2019-01-26T04:26:18.475Z,99.99
2019-01-26T04:27:18.465Z,99.99
2019-01-26T04:28:18.461Z,99.99
2019-01-26T04:29:18.453Z,99.99
2019-01-26T04:30:18.281Z,99.99
2019-01-26T04:31:18.419Z,99.99
2019-01-26T04:32:18.419Z,99.99
2019-01-26T04:33:18.403Z,99.99
2019-01-26T04:34:18.399Z,99.99
2019-01-26T04:35:18.477Z,99.99
2019-01-26T04:36:18.373Z,99.99
2019-01-26T04:37:18.112Z,99.99
2019-01-26T04:38:18.348Z,99.99
2019-01-26T04:39:18.342Z,99.99
2019-01-26T04:40:18.402Z,99.99
2019-01-26T04:41:18.315Z,99.99
2019-01-26T04:42:18.318Z,99.99
2019-01-26T04:43:18.290Z,99.99
2019-01-26T04:44:18.279Z,99.99
2019-01-26T04:45:18.369Z,99.99
2019-01-26T04:46:18.250Z,99.99
2019-01-26T04:47:18.246Z,99.99
2019-01-26T04:48:18.226Z,99.99
2019-01-26T04:49:18.236Z,99.99
2019-01-26T04:50:18.082Z,99.99
2019-01-26T04:51:18.215Z,99.99
2019-01-26T04:52:17.943Z,99.99
2019-01-26T04:53:18.186Z,99.99
2019-01-26T04:54:18.173Z,99.99
2019-01-26T04:55:18.199Z,99.99
2019-01-26T04:56:17.904Z,99.99
2019-01-26T04:57:18.146Z,99.99
2019-01-26T04:58:18.120Z,99.99
2019-01-26T04:59:18.124Z,99.99
2019-01-26T05:00:18.187Z,99.99
2019-01-26T05:01:18.090Z,99.99
2019-01-26T05:02:18.084Z,99.99
2019-01-26T05:03:18.074Z,99.99
2019-01-26T05:04:17.831Z,99.99
2019-01-26T05:05:18.089Z,99.99
2019-01-26T05:06:18.035Z,99.99
2019-01-26T05:07:18.038Z,99.99
2019-01-26T05:08:18.021Z,99.99
2019-01-26T05:09:17.765Z,99.99
2019-01-26T05:10:18.088Z,99.99
2019-01-26T05:11:17.985Z,99.99
2019-01-26T05:12:17.980Z,99.99
2019-01-26T05:13:17.959Z,99.99
2019-01-26T05:14:17.710Z,99.99
2019-01-26T05:15:17.993Z,99.99
2019-01-26T05:16:17.682Z,99.99
2019-01-26T05:17:17.988Z,99.99
2019-01-26T05:18:17.742Z,99.99
2019-01-26T05:19:17.905Z,99.99
2019-01-26T05:20:17.698Z,99.99
2019-01-26T05:21:17.870Z,99.99
2019-01-26T05:22:17.626Z,99.99
2019-01-26T05:23:17.868Z,99.99
2019-01-26T05:24:17.842Z,99.99
2019-01-26T05:25:17.831Z,99.99
2019-01-26T05:26:17.581Z,99.99
2019-01-26T05:27:17.823Z,99.99
2019-01-26T05:28:17.808Z,99.99
2019-01-26T05:29:17.798Z,99.99
2019-01-26T05:30:17.809Z,99.99
2019-01-26T05:31:17.527Z,99.99
2019-01-26T05:32:17.755Z,99.99
2019-01-26T05:33:17.748Z,99.99
2019-01-26T05:34:17.737Z,99.99
2019-01-26T05:35:17.525Z,99.99
2019-01-26T05:36:17.491Z,99.99
2019-01-26T05:37:17.706Z,99.99
2019-01-26T05:38:17.698Z,99.99
2019-01-26T05:39:17.438Z,99.99
2019-01-26T05:40:17.701Z,99.99
2019-01-26T05:41:17.681Z,99.99
2019-01-26T05:42:17.655Z,99.99
2019-01-26T05:43:17.661Z,99.99
2019-01-26T05:44:17.676Z,99.99
2019-01-26T05:45:17.839Z,99.99
2019-01-26T05:46:17.635Z,99.99
2019-01-26T05:47:17.607Z,99.99
2019-01-26T05:48:17.595Z,99.99
2019-01-26T05:49:17.332Z,99.99
2019-01-26T05:50:17.577Z,99.99
2019-01-26T05:51:17.310Z,99.99
2019-01-26T05:52:17.310Z,99.99
2019-01-26T05:53:17.547Z,99.99
2019-01-26T05:54:17.580Z,99.99
2019-01-26T05:55:17.538Z,99.99
2019-01-26T05:56:17.529Z,99.99
2019-01-26T05:57:17.505Z,99.99
2019-01-26T05:58:17.502Z,99.99
2019-01-26T05:59:17.479Z,99.99
2019-01-26T06:00:17.232Z,99.99
2019-01-26T06:01:17.462Z,99.99
2019-01-26T06:02:17.226Z,99.99
2019-01-26T06:03:17.197Z,99.99
2019-01-26T06:04:17.425Z,99.99
2019-01-26T06:05:17.213Z,99.99
2019-01-26T06:06:17.410Z,99.99
2019-01-26T06:07:17.391Z,99.99
2019-01-26T06:08:17.418Z,99.99
2019-01-26T06:09:17.382Z,99.99
2019-01-26T06:10:17.431Z,99.99
2019-01-26T06:11:17.360Z,99.99
2019-01-26T06:12:17.340Z,99.99
2019-01-26T06:13:17.334Z,99.99
2019-01-26T06:14:17.324Z,99.99
2019-01-26T06:15:17.314Z,99.99
2019-01-26T06:16:17.323Z,99.99
2019-01-26T06:17:17.331Z,99.99
2019-01-26T06:18:17.276Z,99.99
2019-01-26T06:19:17.270Z,99.99
2019-01-26T06:20:17.284Z,99.99
2019-01-26T06:21:17.012Z,99.99
2019-01-26T06:22:17.238Z,99.99
2019-01-26T06:23:17.248Z,99.99
2019-01-26T06:24:16.977Z,99.99
2019-01-26T06:25:17.276Z,99.99
2019-01-26T06:26:16.964Z,99.99
2019-01-26T06:27:17.187Z,99.99
2019-01-26T06:28:17.184Z,99.99
2019-01-26T06:29:16.922Z,99.99
2019-01-26T06:30:17.187Z,99.99
2019-01-26T06:31:17.171Z,99.99
2019-01-26T06:32:16.889Z,99.99
2019-01-26T06:33:16.897Z,99.99
2019-01-26T06:34:17.121Z,99.99
2019-01-26T06:35:16.935Z,99.99
2019-01-26T06:36:17.125Z,99.99
2019-01-26T06:37:17.086Z,99.99
2019-01-26T06:38:17.088Z,99.99
2019-01-26T06:39:16.816Z,99.99
2019-01-26T06:40:17.078Z,99.99
2019-01-26T06:41:17.073Z,99.99
2019-01-26T06:42:17.039Z,99.99
2019-01-26T06:43:17.035Z,99.99
2019-01-26T06:44:17.019Z,99.99
2019-01-26T06:45:16.796Z,99.99
2019-01-26T06:46:16.999Z,99.99
2019-01-26T06:47:16.746Z,99.99
2019-01-26T06:48:16.978Z,99.99
2019-01-26T06:49:16.980Z,99.99
2019-01-26T06:50:16.798Z,99.99
2019-01-26T06:51:16.710Z,99.99
2019-01-26T06:52:16.707Z,99.99
2019-01-26T06:53:16.672Z,99.99
2019-01-26T06:54:16.912Z,99.99
2019-01-26T06:55:17.006Z,99.99
2019-01-26T06:56:16.890Z,99.99
2019-01-26T06:57:16.884Z,99.99
2019-01-26T06:58:16.638Z,99.99
2019-01-26T06:59:16.624Z,99.99
2019-01-26T07:00:16.861Z,99.99
2019-01-26T07:01:16.603Z,99.99
2019-01-26T07:02:17.637Z,99.99
2019-01-26T07:03:16.585Z,99.99
2019-01-26T07:04:16.813Z,99.99
2019-01-26T07:05:16.617Z,99.99
2019-01-26T07:06:16.543Z,99.99
2019-01-26T07:07:16.540Z,99.99
2019-01-26T07:08:16.527Z,99.99
2019-01-26T07:09:16.769Z,99.99
2019-01-26T07:10:16.763Z,99.99
2019-01-26T07:11:16.494Z,99.99
2019-01-26T07:12:16.735Z,99.99
2019-01-26T07:13:16.493Z,99.99
2019-01-26T07:14:16.710Z,99.99
2019-01-26T07:15:16.495Z,99.99
2019-01-26T07:16:16.461Z,99.99
2019-01-26T07:17:16.709Z,99.99
2019-01-26T07:18:16.485Z,99.99
2019-01-26T07:19:16.437Z,99.99
2019-01-26T07:20:16.488Z,99.99
2019-01-26T07:21:16.417Z,99.99
2019-01-26T07:22:17.442Z,99.99
2019-01-26T07:23:16.645Z,99.99
2019-01-26T07:24:16.621Z,99.99
2019-01-26T07:25:16.619Z,99.99
2019-01-26T07:26:16.614Z,99.99
2019-01-26T07:27:16.392Z,99.99
2019-01-26T07:28:16.593Z,99.99
2019-01-26T07:29:16.592Z,99.99
2019-01-26T07:30:16.578Z,99.99
2019-01-26T07:31:16.555Z,99.99
2019-01-26T07:32:16.532Z,99.99
2019-01-26T07:33:16.532Z,99.99
2019-01-26T07:34:16.519Z,99.99
2019-01-26T07:35:16.337Z,99.99
2019-01-26T07:36:16.495Z,99.99
2019-01-26T07:37:16.235Z,99.99
2019-01-26T07:38:16.476Z,99.99
2019-01-26T07:39:16.215Z,99.99
2019-01-26T07:40:16.522Z,99.99
2019-01-26T07:41:16.202Z,99.99
2019-01-26T07:42:16.187Z,99.99
2019-01-26T07:43:16.422Z,99.99
2019-01-26T07:44:16.170Z,99.99
2019-01-26T07:45:16.457Z,99.99
2019-01-26T07:46:16.399Z,99.99
2019-01-26T07:47:16.135Z,99.99
2019-01-26T07:48:19.452Z,99.99
2019-01-26T07:49:16.413Z,99.99
2019-01-26T07:50:16.507Z,99.99
2019-01-26T07:51:16.093Z,99.99
2019-01-26T07:52:16.090Z,99.99
2019-01-26T07:53:16.323Z,99.99
2019-01-26T07:54:16.317Z,99.99
2019-01-26T07:55:16.300Z,99.99
2019-01-26T07:56:16.303Z,99.99
2019-01-26T07:57:16.292Z,99.99
2019-01-26T07:58:16.277Z,99.99
2019-01-26T07:59:16.018Z,99.99
2019-01-26T08:00:16.259Z,99.99
2019-01-26T08:01:16.259Z,99.99
2019-01-26T08:02:16.243Z,99.99
2019-01-26T08:03:16.232Z,99.99
2019-01-26T08:04:16.219Z,99.99
2019-01-26T08:05:16.258Z,99.99
2019-01-26T08:06:16.206Z,99.99
2019-01-26T08:07:15.946Z,99.99
2019-01-26T08:08:16.185Z,99.99
2019-01-26T08:09:15.922Z,99.99
2019-01-26T08:10:15.915Z,99.99
2019-01-26T08:11:15.903Z,99.99
2019-01-26T08:12:15.895Z,99.99
2019-01-26T08:13:16.134Z,99.99
2019-01-26T08:14:16.123Z,99.99
2019-01-26T08:15:16.166Z,99.99
2019-01-26T08:16:16.163Z,99.99
2019-01-26T08:17:16.116Z,99.99
2019-01-26T08:18:15.857Z,99.99
2019-01-26T08:19:16.076Z,99.99
2019-01-26T08:20:16.092Z,99.99
2019-01-26T08:21:16.067Z,99.99
2019-01-26T08:22:16.051Z,99.99
2019-01-26T08:23:17.698Z,99.99
2019-01-26T08:24:16.038Z,99.99
2019-01-26T08:25:15.780Z,99.99
2019-01-26T08:26:16.018Z,99.99
2019-01-26T08:27:16.005Z,99.99
2019-01-26T08:28:16.000Z,99.99
2019-01-26T08:29:15.988Z,99.99
2019-01-26T08:30:15.785Z,99.99
2019-01-26T08:31:15.978Z,99.99
2019-01-26T08:32:15.965Z,99.99
2019-01-26T08:33:15.957Z,99.99
2019-01-26T08:34:15.703Z,99.99
2019-01-26T08:35:16.029Z,99.99
2019-01-26T08:36:15.917Z,99.99
2019-01-26T08:37:15.659Z,99.99
2019-01-26T08:38:15.901Z,99.99
2019-01-26T08:39:15.887Z,99.99
2019-01-26T08:40:15.993Z,99.99
2019-01-26T08:41:15.880Z,99.99
2019-01-26T08:42:15.610Z,99.99
2019-01-26T08:43:15.637Z,99.99
2019-01-26T08:44:15.858Z,99.99
2019-01-26T08:45:15.899Z,99.99
2019-01-26T08:46:15.573Z,99.99
2019-01-26T08:47:15.814Z,99.99
2019-01-26T08:48:15.819Z,99.99
2019-01-26T08:49:15.815Z,99.99
2019-01-26T08:50:15.622Z,99.99
2019-01-26T08:51:15.790Z,99.99
2019-01-26T08:52:15.514Z,99.99
2019-01-26T08:53:15.509Z,99.99
2019-01-26T08:54:15.750Z,99.99
2019-01-26T08:55:20.748Z,99.99
2019-01-26T08:56:15.735Z,99.99
2019-01-26T08:57:15.483Z,99.99
2019-01-26T08:58:15.476Z,99.99
2019-01-26T08:59:15.704Z,99.99
2019-01-26T09:00:15.739Z,99.99
2019-01-26T09:01:15.689Z,99.99
2019-01-26T09:02:15.431Z,99.99
2019-01-26T09:03:15.670Z,99.99
2019-01-26T09:04:15.677Z,99.99
2019-01-26T09:05:15.697Z,99.99
2019-01-26T09:06:15.398Z,99.99
2019-01-26T09:07:15.386Z,99.99
2019-01-26T09:08:15.385Z,99.99
2019-01-26T09:09:15.378Z,99.99
2019-01-26T09:10:15.649Z,99.99
2019-01-26T09:11:15.378Z,99.99
2019-01-26T09:12:15.596Z,99.99
2019-01-26T09:13:15.597Z,99.99
2019-01-26T09:14:15.576Z,99.99
2019-01-26T09:15:15.649Z,99.99
2019-01-26T09:16:15.558Z,99.99
2019-01-26T09:17:15.559Z,99.99
2019-01-26T09:18:15.302Z,99.99
2019-01-26T09:19:15.289Z,99.99
2019-01-26T09:20:15.624Z,99.99
2019-01-26T09:21:15.528Z,99.99
2019-01-26T09:22:15.526Z,99.99
2019-01-26T09:23:15.582Z,99.99
2019-01-26T09:24:15.492Z,99.99
2019-01-26T09:25:15.593Z,99.99
2019-01-26T09:26:15.474Z,99.99
2019-01-26T09:27:15.473Z,99.99
2019-01-26T09:28:15.464Z,99.99
2019-01-26T09:29:15.456Z,99.99
2019-01-26T09:30:15.447Z,99.99
2019-01-26T09:31:15.451Z,99.99
2019-01-26T09:32:15.190Z,99.99
2019-01-26T09:33:15.421Z,99.99
2019-01-26T09:34:15.407Z,99.99
2019-01-26T09:35:15.154Z,99.99
2019-01-26T09:36:15.149Z,99.99
2019-01-26T09:37:15.385Z,99.99
2019-01-26T09:38:15.194Z,99.99
2019-01-26T09:39:15.362Z,99.99
2019-01-26T09:40:15.409Z,99.99
2019-01-26T09:41:15.356Z,99.99
2019-01-26T09:42:15.341Z,99.99
2019-01-26T09:43:15.080Z,99.99
2019-01-26T09:44:15.075Z,99.99
2019-01-26T09:45:15.157Z,99.99
2019-01-26T09:46:15.071Z,99.99
2019-01-26T09:47:15.054Z,99.99
2019-01-26T09:48:15.300Z,99.99
2019-01-26T09:49:15.281Z,99.99
2019-01-26T09:50:15.026Z,99.99
2019-01-26T09:51:15.288Z,99.99
2019-01-26T09:52:15.258Z,99.99
2019-01-26T09:53:15.003Z,99.99
2019-01-26T09:54:14.998Z,99.99
2019-01-26T09:55:15.091Z,99.99
2019-01-26T09:56:14.985Z,99.99
2019-01-26T09:57:15.001Z,99.99
2019-01-26T09:58:14.989Z,99.99
2019-01-26T09:59:16.158Z,99.99
2019-01-26T10:00:15.233Z,99.99
2019-01-26T10:01:15.193Z,99.99
2019-01-26T10:02:15.183Z,99.99
2019-01-26T10:03:15.172Z,99.99
2019-01-26T10:04:15.304Z,99.99
2019-01-26T10:05:15.167Z,99.99
2019-01-26T10:06:15.142Z,99.99
2019-01-26T10:07:15.135Z,99.99
2019-01-26T10:08:15.138Z,99.87
2019-01-26T10:09:15.760Z,99.99
2019-01-26T10:10:15.129Z,99.4
2019-01-26T10:11:15.107Z,99.49
2019-01-26T10:12:15.117Z,99.11
2019-01-26T10:13:15.185Z,98.92
2019-01-26T10:14:15.094Z,98.73
2019-01-26T10:15:15.702Z,98.83
2019-01-26T10:16:14.819Z,98.54
2019-01-26T10:17:15.070Z,98.73
2019-01-26T10:18:15.075Z,97.97
2019-01-26T10:19:14.807Z,97.69
2019-01-26T10:20:14.809Z,97.97
2019-01-26T10:21:14.803Z,98.73
2019-01-26T10:22:14.783Z,98.64
2019-01-26T10:23:14.783Z,97.6
2019-01-26T10:24:14.783Z,97.88
2019-01-26T10:25:14.819Z,98.54
2019-01-26T10:26:14.995Z,97.78
2019-01-26T10:27:14.743Z,97.97
2019-01-26T10:28:14.981Z,98.16
2019-01-26T10:29:14.964Z,97.88
2019-01-26T10:30:15.024Z,98.54
2019-01-26T10:31:14.723Z,98.26
2019-01-26T10:32:14.702Z,97.97
2019-01-26T10:33:14.950Z,97.97
2019-01-26T10:34:14.689Z,98.07
2019-01-26T10:35:14.932Z,97.41
2019-01-26T10:36:14.920Z,97.31
2019-01-26T10:37:14.664Z,96.79
2019-01-26T10:38:14.910Z,96.83
2019-01-26T10:39:14.900Z,97.27
2019-01-26T10:40:14.660Z,96.5
2019-01-26T10:41:14.631Z,96.26
2019-01-26T10:42:14.876Z,96.22
2019-01-26T10:43:14.876Z,96.79
2019-01-26T10:44:14.875Z,96.45
2019-01-26T10:45:14.926Z,96.22
2019-01-26T10:46:14.608Z,96.41
2019-01-26T10:47:14.846Z,96.22
2019-01-26T10:48:14.590Z,96.41
2019-01-26T10:49:14.833Z,96.22
2019-01-26T10:50:14.573Z,95.94
2019-01-26T10:51:14.575Z,95.55
2019-01-26T10:52:14.804Z,95.46
2019-01-26T10:53:14.893Z,95.84
2019-01-26T10:54:14.788Z,94.7
2019-01-26T10:55:14.829Z,93.27
2019-01-26T10:56:14.531Z,93.51
2019-01-26T10:57:14.785Z,92.71
2019-01-26T10:58:14.776Z,92.46
2019-01-26T10:59:14.513Z,92.75
2019-01-26T11:00:14.576Z,92.08
2019-01-26T11:01:14.504Z,91.42
2019-01-26T11:02:14.744Z,90.66
2019-01-26T11:03:14.733Z,90.75
2019-01-26T11:04:14.482Z,91.04
2019-01-26T11:05:14.722Z,90.56
2019-01-26T11:06:14.737Z,89.8
2019-01-26T11:07:15.823Z,89.71
2019-01-26T11:08:14.756Z,89.9
2019-01-26T11:09:14.443Z,89.8
2019-01-26T11:10:14.452Z,89.71
2019-01-26T11:11:14.430Z,90
2019-01-26T11:12:14.674Z,89.94
2019-01-26T11:13:14.681Z,89.71
2019-01-26T11:14:14.421Z,90.14
2019-01-26T11:15:14.767Z,89.75
2019-01-26T11:16:14.660Z,89.37
2019-01-26T11:17:14.421Z,89.09
2019-01-26T11:18:14.403Z,88.9
2019-01-26T11:19:14.650Z,87.76
2019-01-26T11:20:14.630Z,86.8
2019-01-26T11:21:14.622Z,87.09
2019-01-26T11:22:14.389Z,86.38
2019-01-26T11:23:14.620Z,86.47
2019-01-26T11:24:15.655Z,86.47
2019-01-26T11:25:14.651Z,86.09
2019-01-26T11:26:14.363Z,86.28
2019-01-26T11:27:14.364Z,86.38
2019-01-26T11:28:14.585Z,85.61
2019-01-26T11:29:14.337Z,85.9
2019-01-26T11:30:14.442Z,86.18
2019-01-26T11:31:14.571Z,85.61
2019-01-26T11:32:14.567Z,85.52
2019-01-26T11:33:14.560Z,85.61
2019-01-26T11:34:14.568Z,86.09
2019-01-26T11:35:14.303Z,86.47
2019-01-26T11:36:14.573Z,86.66
2019-01-26T11:37:14.539Z,86.85
2019-01-26T11:38:14.530Z,86.8
2019-01-26T11:39:14.575Z,87.38
2019-01-26T11:40:14.517Z,86.9
2019-01-26T11:41:14.516Z,87.47
2019-01-26T11:42:14.510Z,87.76
2019-01-26T11:43:14.509Z,87.66
2019-01-26T11:44:14.502Z,87.66
2019-01-26T11:45:14.565Z,88.04
2019-01-26T11:46:14.492Z,87.95
2019-01-26T11:47:14.483Z,87.95
2019-01-26T11:48:14.229Z,88.04
2019-01-26T11:49:17.700Z,88.13
2019-01-26T11:50:14.216Z,88.09
2019-01-26T11:51:14.216Z,87.42
2019-01-26T11:52:14.462Z,85.99
2019-01-26T11:53:14.450Z,85.52
2019-01-26T11:54:14.445Z,85.52
2019-01-26T11:55:14.555Z,85.61
2019-01-26T11:56:14.184Z,86.18
2019-01-26T11:57:14.175Z,85.8
2019-01-26T11:58:14.421Z,86.47
2019-01-26T11:59:14.422Z,84.95
2019-01-26T12:00:14.413Z,85.61
2019-01-26T12:01:14.418Z,85.04
2019-01-26T12:02:14.415Z,83.94
2019-01-26T12:03:14.169Z,84.13
2019-01-26T12:04:14.403Z,84.47
2019-01-26T12:05:14.507Z,84.56
2019-01-26T12:06:14.127Z,84.56
2019-01-26T12:07:14.390Z,85.04
2019-01-26T12:08:14.374Z,85.24
2019-01-26T12:09:14.387Z,84.8
2019-01-26T12:10:14.516Z,84.99
2019-01-26T12:11:14.356Z,84.23
2019-01-26T12:12:14.356Z,83.85
2019-01-26T12:13:14.356Z,83.56
2019-01-26T12:14:14.092Z,83.65
2019-01-26T12:15:14.392Z,82.9
2019-01-26T12:16:14.332Z,83.65
2019-01-26T12:17:14.081Z,83.47
2019-01-26T12:18:14.079Z,83.94
2019-01-26T12:19:14.338Z,84.33
2019-01-26T12:20:14.332Z,84.47
2019-01-26T12:21:14.311Z,84.7
2019-01-26T12:22:14.300Z,84.33
2019-01-26T12:23:14.296Z,84.13
2019-01-26T12:24:14.549Z,84.42
2019-01-26T12:25:14.337Z,84.99
2019-01-26T12:26:14.051Z,85.04
2019-01-26T12:27:14.302Z,85.8
2019-01-26T12:28:14.034Z,86.28
2019-01-26T12:29:14.272Z,87.23
2019-01-26T12:30:14.304Z,88.04
2019-01-26T12:31:14.279Z,87.66
2019-01-26T12:32:14.250Z,88.23
2019-01-26T12:33:14.274Z,88.9
2019-01-26T12:34:14.237Z,89
2019-01-26T12:35:14.304Z,88.8
2019-01-26T12:36:14.235Z,88.8
2019-01-26T12:37:13.989Z,89.09
2019-01-26T12:38:13.978Z,88.9
2019-01-26T12:39:14.214Z,89
2019-01-26T12:40:14.283Z,88.9
2019-01-26T12:41:14.210Z,88.8
2019-01-26T12:42:14.199Z,88.66
2019-01-26T12:43:13.946Z,88.56
2019-01-26T12:44:13.934Z,88.28
2019-01-26T12:45:14.237Z,86.76
2019-01-26T12:46:14.163Z,87.23
2019-01-26T12:47:19.466Z,87.32
2019-01-26T12:48:14.174Z,87.23
2019-01-26T12:49:13.905Z,87.23
2019-01-26T12:50:14.146Z,86.94
2019-01-26T12:51:13.899Z,87.04
2019-01-26T12:52:14.140Z,86.85
2019-01-26T12:53:14.129Z,87.04
2019-01-26T12:54:13.889Z,86.09